Terminal Aerodrome Forecast
Issued by NWS

Home | Current Version | Previous Version | Text Only | Print | Product List | Glossary On
Versions: 1 2 3 4 5 6 7 8 9 10 11 12 13 14 15 16 17 18 19 20 21 22 23 24 25 26 27 28 29 30 31 32 33 34 35
000
FTUS43 KDTX 281723
TAFYIP
TAF
KYIP 281723Z 2818/0118 16012KT 6SM BR BKN015 OVC025
     FM282200 19010KT 4SM BR VCTS BKN015 OVC025CB
     FM010100 20014KT 3SM SHRA BR OVC008
     FM010900 20012G20KT 5SM -SHRA BR SCT008 OVC035
      TEMPO 0109/0112 1SM TSRA OVC025CB
     FM011500 22014G24KT P6SM SHRA OVC050=

USA.gov is the U.S. government's official web portal to all federal, state and local government web resources and services.